createdAt,value
2022-10-28T00:01:21.834Z,101357.25
2022-10-28T00:06:34.387Z,101344.09
2022-10-28T00:11:35.865Z,101340.28
2022-10-28T00:16:37.901Z,101345.13
2022-10-28T00:21:40.513Z,101347.50
2022-10-28T00:26:42.727Z,101348.72
2022-10-28T00:31:44.091Z,101336.50
2022-10-28T00:36:46.021Z,101337.44
2022-10-28T00:41:52.604Z,101338.38
2022-10-28T00:46:54.052Z,101350.44
2022-10-28T00:52:07.291Z,101352.91
2022-10-28T00:57:10.853Z,101348.81
2022-10-28T01:02:12.444Z,101351.28
2022-10-28T01:07:14.576Z,101342.38
2022-10-28T01:12:23.400Z,101338.59
2022-10-28T01:18:12.970Z,101333.34
2022-10-28T01:23:19.222Z,101335.97
2022-10-28T01:28:46.724Z,101335.34
2022-10-28T01:34:27.113Z,101330.59
2022-10-28T01:39:28.399Z,101337.28
2022-10-28T01:44:51.547Z,101336.59
2022-10-28T01:49:56.660Z,101326.91
2022-10-28T01:55:02.462Z,101317.09
2022-10-28T02:00:04.449Z,101315.22
2022-10-28T02:05:33.524Z,101310.22
2022-10-28T02:10:37.028Z,101299.53
2022-10-28T02:15:52.767Z,101296.91
2022-10-28T02:21:03.159Z,101303.22
2022-10-28T02:26:22.613Z,101297.97
2022-10-28T02:31:26.586Z,101280.28
2022-10-28T02:36:28.989Z,101296.31
2022-10-28T02:41:33.663Z,101299.16
2022-10-28T02:46:35.383Z,101295.88
2022-10-28T02:51:38.577Z,101295.19
2022-10-28T02:56:53.662Z,101297.09
2022-10-28T03:01:55.225Z,101286.97
2022-10-28T03:06:56.796Z,101290.88
2022-10-28T03:11:58.269Z,101287.88
2022-10-28T03:16:59.714Z,101274.16
2022-10-28T03:22:01.160Z,101275.31
2022-10-28T03:27:02.601Z,101263.41
2022-10-28T03:32:04.169Z,101267.88
2022-10-28T03:37:05.622Z,101277.75
2022-10-28T03:42:07.070Z,101271.53
2022-10-28T03:47:08.563Z,101271.75
2022-10-28T03:52:10.014Z,101283.78
2022-10-28T03:57:11.466Z,101283.38
2022-10-28T04:02:13.175Z,101278.69
2022-10-28T04:07:14.749Z,101284.41
2022-10-28T04:12:16.202Z,101276.06
2022-10-28T04:17:17.666Z,101264.22
2022-10-28T04:22:19.127Z,101266.75
2022-10-28T04:27:21.087Z,101258.88
2022-10-28T04:32:22.585Z,101245.56
2022-10-28T04:37:24.805Z,101245.38
2022-10-28T04:42:26.277Z,101245.00
2022-10-28T04:47:27.742Z,101236.28
2022-10-28T04:52:29.227Z,101229.22
2022-10-28T04:57:32.337Z,101234.97
2022-10-28T05:02:33.783Z,101223.41
2022-10-28T05:07:35.230Z,101226.97
2022-10-28T05:12:36.681Z,101233.91
2022-10-28T05:17:40.169Z,101227.47
2022-10-28T05:22:53.716Z,101225.66
2022-10-28T05:27:59.145Z,101224.34
2022-10-28T05:33:02.223Z,101211.59
2022-10-28T05:38:03.965Z,101221.81
2022-10-28T05:43:06.428Z,101220.22
2022-10-28T05:48:07.876Z,101220.06
2022-10-28T05:53:09.336Z,101221.72
2022-10-28T05:58:10.793Z,101215.72
2022-10-28T06:03:12.353Z,101200.72
2022-10-28T06:08:13.866Z,101200.34
2022-10-28T06:13:13.797Z,101193.78
2022-10-28T06:18:16.805Z,101188.22
2022-10-28T06:23:20.841Z,101181.78
2022-10-28T06:28:22.344Z,101181.94
2022-10-28T06:33:23.804Z,101186.31
2022-10-28T06:38:26.055Z,101187.88
2022-10-28T06:43:27.365Z,101188.63
2022-10-28T06:48:30.331Z,101195.50
2022-10-28T06:53:31.844Z,101194.75
2022-10-28T06:58:33.357Z,101195.25
2022-10-28T07:03:34.822Z,101201.03
2022-10-28T07:08:36.303Z,101208.59
2022-10-28T07:13:37.782Z,101204.84
2022-10-28T07:18:39.238Z,101193.31
2022-10-28T07:23:40.720Z,101199.97
2022-10-28T07:28:42.861Z,101196.44
2022-10-28T07:33:44.319Z,101205.22
2022-10-28T07:38:48.720Z,101189.47
2022-10-28T07:43:50.260Z,101190.66
2022-10-28T07:48:51.723Z,101199.59
2022-10-28T07:53:53.319Z,101192.38
2022-10-28T07:58:54.769Z,101195.16
2022-10-28T08:03:56.899Z,101202.22
2022-10-28T08:08:58.376Z,101189.25
2022-10-28T08:14:01.240Z,101186.03
2022-10-28T08:19:06.813Z,101178.75
2022-10-28T08:24:09.343Z,101181.66
2022-10-28T08:29:12.062Z,101187.25
2022-10-28T08:34:13.574Z,101172.28
2022-10-28T08:39:15.094Z,101158.44
2022-10-28T08:44:53.739Z,101157.72
2022-10-28T08:49:56.573Z,101168.56
2022-10-28T08:55:02.303Z,101164.22
2022-10-28T09:00:06.149Z,101153.91
2022-10-28T09:05:17.372Z,101157.78
2022-10-28T09:10:25.452Z,101154.09
2022-10-28T09:15:54.920Z,101161.78
2022-10-28T09:20:56.900Z,101152.50
2022-10-28T09:26:01.430Z,101158.66
2022-10-28T09:31:05.408Z,101155.47
2022-10-28T09:36:14.034Z,101158.75
2022-10-28T09:41:18.568Z,101163.47
2022-10-28T09:46:20.035Z,101157.81
2022-10-28T09:51:34.905Z,101162.22
2022-10-28T09:56:36.382Z,101155.91
2022-10-28T10:01:38.342Z,101155.06
2022-10-28T10:06:39.867Z,101154.38
2022-10-28T10:11:43.552Z,101170.84
2022-10-28T10:16:46.924Z,101173.72
2022-10-28T10:21:49.602Z,101168.56
2022-10-28T10:26:51.785Z,101155.44
2022-10-28T10:32:18.554Z,101149.78
2022-10-28T10:37:21.166Z,101155.06
2022-10-28T10:42:24.795Z,101145.78
2022-10-28T10:47:26.270Z,101150.44
2022-10-28T10:52:29.545Z,101145.16
2022-10-28T10:57:30.998Z,101147.88
2022-10-28T11:02:39.452Z,101144.84
2022-10-28T11:07:45.113Z,101138.75
2022-10-28T11:12:57.475Z,101140.63
2022-10-28T11:18:11.257Z,101134.47
2022-10-28T11:23:46.035Z,101139.31
2022-10-28T11:29:15.687Z,101142.16
2022-10-28T11:34:26.823Z,101140.69
2022-10-28T11:39:34.435Z,101129.41
2022-10-28T11:44:59.897Z,101117.00
2022-10-28T11:50:13.522Z,101121.34
2022-10-28T11:55:37.684Z,101105.50
2022-10-28T12:00:57.141Z,101105.81
2022-10-28T12:06:09.732Z,101106.22
2022-10-28T12:11:45.736Z,101106.22
2022-10-28T12:16:57.309Z,101101.63
2022-10-28T12:22:05.729Z,101095.78
2022-10-28T12:27:17.050Z,101090.22
2022-10-28T12:32:24.975Z,101076.00
2022-10-28T12:37:44.678Z,101063.84
2022-10-28T12:42:55.479Z,101041.50
2022-10-28T12:48:16.759Z,101056.34
2022-10-28T12:53:38.383Z,101056.97
2022-10-28T12:58:50.379Z,101058.88
2022-10-28T13:03:52.559Z,101053.56
2022-10-28T13:09:12.015Z,101061.59
2022-10-28T13:14:34.160Z,101068.22
2022-10-28T13:20:00.520Z,101057.28
2022-10-28T13:25:34.204Z,101041.69
2022-10-28T13:30:35.674Z,101034.66
2022-10-28T13:35:37.144Z,101031.72
2022-10-28T13:40:38.433Z,101039.00
2022-10-28T13:45:54.312Z,101034.63
2022-10-28T13:51:11.072Z,101034.81
2022-10-28T13:56:37.591Z,101035.53
2022-10-28T14:01:41.936Z,101060.69
2022-10-28T14:06:43.763Z,101070.97
2022-10-28T14:11:45.240Z,101064.16
2022-10-28T14:16:46.700Z,101051.97
2022-10-28T14:22:01.719Z,101066.81
2022-10-28T14:27:06.752Z,101050.94
2022-10-28T14:32:31.549Z,101053.38
2022-10-28T14:38:08.588Z,101055.84
2022-10-28T14:43:34.781Z,101052.09
2022-10-28T14:48:42.783Z,101038.22
2022-10-28T14:53:45.036Z,101045.16
2022-10-28T14:58:46.521Z,101045.94
2022-10-28T15:03:50.559Z,101044.97
2022-10-28T15:08:52.087Z,101054.22
2022-10-28T15:13:53.662Z,101046.56
2022-10-28T15:18:55.120Z,101055.69
2022-10-28T15:24:00.863Z,101055.66
2022-10-28T15:29:02.364Z,101054.47
2022-10-28T15:34:03.833Z,101046.50
2022-10-28T15:39:06.924Z,101059.16
2022-10-28T15:44:23.785Z,101068.59
2022-10-28T15:49:36.151Z,101069.94
2022-10-28T15:54:37.602Z,101069.63
2022-10-28T15:59:39.057Z,101070.28
2022-10-28T16:04:42.352Z,101065.78
2022-10-28T16:09:46.480Z,101060.63
2022-10-28T16:14:55.639Z,101072.66
2022-10-28T16:19:58.697Z,101062.56
2022-10-28T16:25:00.240Z,101077.84
2022-10-28T16:30:01.710Z,101071.69
2022-10-28T16:35:03.955Z,101074.69
2022-10-28T16:40:09.206Z,101084.34
2022-10-28T16:45:21.421Z,101078.50
2022-10-28T16:50:23.326Z,101110.38
2022-10-28T16:55:24.800Z,101111.53
2022-10-28T17:00:26.255Z,101105.38
2022-10-28T17:05:27.714Z,101107.25
2022-10-28T17:10:29.165Z,101108.28
2022-10-28T17:15:30.678Z,101111.81
2022-10-28T17:20:32.171Z,101113.50
2022-10-28T17:25:33.725Z,101123.22
2022-10-28T17:30:35.541Z,101132.09
2022-10-28T17:35:37.041Z,101146.75
2022-10-28T17:40:38.488Z,101127.88
2022-10-28T17:45:39.988Z,101141.72
2022-10-28T17:50:41.448Z,101151.00
2022-10-28T17:55:43.015Z,101170.25
2022-10-28T18:00:45.499Z,101178.00
2022-10-28T18:05:46.964Z,101161.41
2022-10-28T18:10:55.207Z,101190.78
2022-10-28T18:16:06.356Z,101202.22
2022-10-28T18:21:10.907Z,101202.38
2022-10-28T18:26:12.837Z,101210.31
2022-10-28T18:31:18.281Z,101220.53
2022-10-28T18:36:23.486Z,101222.69
2022-10-28T18:41:26.640Z,101225.31
2022-10-28T18:46:28.707Z,101225.94
2022-10-28T18:51:30.279Z,101255.25
2022-10-28T18:56:34.032Z,101239.81
2022-10-28T19:01:36.125Z,101250.06
2022-10-28T19:06:39.051Z,101247.44
2022-10-28T19:11:40.532Z,101262.84
2022-10-28T19:16:42.019Z,101262.63
2022-10-28T19:21:43.500Z,101271.47
2022-10-28T19:26:44.992Z,101274.38
2022-10-28T19:31:46.793Z,101296.59
2022-10-28T19:36:48.243Z,101290.03
2022-10-28T19:41:49.765Z,101298.03
2022-10-28T19:46:51.272Z,101298.88
2022-10-28T19:51:52.733Z,101298.06
2022-10-28T19:56:54.191Z,101301.28
2022-10-28T20:01:55.692Z,101300.22
2022-10-28T20:06:58.758Z,101312.41
2022-10-28T20:12:01.791Z,101335.56
2022-10-28T20:17:06.558Z,101338.78
2022-10-28T20:22:08.368Z,101343.72
2022-10-28T20:27:09.891Z,101357.66
2022-10-28T20:32:11.356Z,101376.00
2022-10-28T20:37:12.823Z,101374.81
2022-10-28T20:42:14.296Z,101383.78
2022-10-28T20:47:17.634Z,101391.88
2022-10-28T20:52:19.148Z,101391.84
2022-10-28T20:57:20.618Z,101402.44
2022-10-28T21:02:22.174Z,101405.59
2022-10-28T21:07:23.823Z,101431.06
2022-10-28T21:12:25.899Z,101431.66
2022-10-28T21:17:27.350Z,101438.06
2022-10-28T21:22:28.824Z,101435.91
2022-10-28T21:27:30.393Z,101442.94
2022-10-28T21:32:32.204Z,101449.53
2022-10-28T21:37:34.010Z,101445.22
2022-10-28T21:42:35.473Z,101449.69
2022-10-28T21:47:36.941Z,101458.94
2022-10-28T21:52:38.396Z,101462.16
2022-10-28T21:57:39.846Z,101465.28
2022-10-28T22:02:41.418Z,101481.78
2022-10-28T22:07:43.014Z,101477.06
2022-10-28T22:12:44.453Z,101472.72
2022-10-28T22:17:45.938Z,101471.38
2022-10-28T22:22:47.400Z,101473.25
2022-10-28T22:27:48.851Z,101478.66
2022-10-28T22:32:50.307Z,101483.19
2022-10-28T22:37:51.901Z,101496.16
2022-10-28T22:42:53.631Z,101507.06
2022-10-28T22:47:55.367Z,101505.34
2022-10-28T22:52:57.205Z,101507.19
2022-10-28T22:57:58.912Z,101513.44
2022-10-28T23:03:00.901Z,101513.34
2022-10-28T23:08:02.502Z,101530.22
2022-10-28T23:13:03.969Z,101533.50
2022-10-28T23:18:05.441Z,101545.44
2022-10-28T23:23:06.906Z,101542.06
2022-10-28T23:28:08.363Z,101544.78
2022-10-28T23:33:09.821Z,101541.06
2022-10-28T23:38:16.300Z,101548.84
2022-10-28T23:43:17.765Z,101533.94
2022-10-28T23:48:19.347Z,101555.81
2022-10-28T23:53:21.036Z,101544.97
2022-10-28T23:58:22.710Z,101536.94
